Terminal Aerodrome Forecast
Issued by NWS Grand Forks, ND

Home | Current Version | Previous Version | Graphics & Text | Print | Product List | Glossary On
Versions: 1 2 3 4 5 6 7 8 9 10 11 12 13 14
808
FTUS43 KFGF 242335
TAFFAR
TAF
KFAR 242335Z 2500/2524 33015G25KT P6SM SCT025 BKN035
     FM250300 32012KT P6SM -DZ BKN020 OVC035
     FM250800 32010KT P6SM BKN035
     FM251100 31009KT P6SM SCT035
     FM251600 32012G18KT P6SM BKN035=

USA.gov is the U.S. government's official web portal to all federal, state and local government web resources and services.